Normandy — WDI3305 — position and weather

sailwx.info

Track history (hours):
 
Tides and Currents Weather Stations Pressure Air Temp Water Temp Dewpoint Dewpoint Depression Visibility Wind Speed Wind Dir Waves Ship Positions

Normandy

Owner: Metropolitan Marine Transportation, Inc., Staten Island, NY. More information available from US FCC via Universal Licensing System and Coast Guard Vessel Documentation Center.

Last reported at 2018-Aug-17 10:24 UTC. Time now 2018-Aug-17 11:13 UTC.
Position N 40°46' W 074°00'.

Length 28 m.

Type: Towing. MMSI: 367686940.

Date/timePositionNaut miles runAvg speedWind from/ knotsBaromVisibWave heightAir tempDewpointWater temp
2018-Aug-17 10:24N 40°46' W 074°00'2 5.7
2018-Aug-17 10:00N 40°44' W 074°01'3 6.0
2018-Aug-17 09:30N 40°41' W 074°02'3 6.3
2018-Aug-17 09:00N 40°39' W 074°05'2 3.2
2018-Aug-17 08:25N 40°38' W 074°08'0 0.0
2018-Aug-17 08:00N 40°38' W 074°08'0 0.0
2018-Aug-17 07:30N 40°38' W 074°08'0 0.0
2018-Aug-17 07:00N 40°38' W 074°08'0 0.0
2018-Aug-17 06:30N 40°38' W 074°08'0 0.0
2018-Aug-17 06:00N 40°38' W 074°08'0 0.0
2018-Aug-17 05:30N 40°38' W 074°08'0 0.0
2018-Aug-17 04:59N 40°38' W 074°08'0 0.0
2018-Aug-17 04:30N 40°38' W 074°08'0 0.0
2018-Aug-17 03:25N 40°38' W 074°08'0 0.0
2018-Aug-17 02:57N 40°38' W 074°08'0 0.0
2018-Aug-17 00:32N 40°38' W 074°08'0 0.0
2018-Aug-16 22:47N 40°38' W 074°08'0 0.0
2018-Aug-16 22:30N 40°38' W 074°08'0 0.0
2018-Aug-16 22:00N 40°38' W 074°08'0 0.0
2018-Aug-16 21:29N 40°38' W 074°08'0 0.0
2018-Aug-16 20:03N 40°38' W 074°08'0 0.0
2018-Aug-16 19:49N 40°38' W 074°08'0 0.0
2018-Aug-16 19:18N 40°38' W 074°08'0 0.0
2018-Aug-16 18:59N 40°38' W 074°08'0 0.0
2018-Aug-16 16:11N 40°38' W 074°08'0 0.0
2018-Aug-16 15:53N 40°38' W 074°08'0 0.0
2018-Aug-16 15:08N 40°38' W 074°08'0 0.0
2018-Aug-16 14:35N 40°38' W 074°08'0 0.0
2018-Aug-16 14:29N 40°38' W 074°08'0 0.0
2018-Aug-16 14:00N 40°38' W 074°08'4 8.8
2018-Aug-16 13:30N 40°40' W 074°03'510.3
2018-Aug-16 13:00N 40°45' W 074°01'1 1.7
2018-Aug-16 12:29N 40°46' W 074°00'0 0.0
2018-Aug-16 09:56N 40°46' W 073°60'0 0.0
2018-Aug-16 09:30N 40°46' W 073°60'2 3.6
2018-Aug-16 09:00N 40°45' W 074°01'3 6.7
2018-Aug-16 08:30N 40°41' W 074°02'4 7.2
2018-Aug-16 08:00N 40°39' W 074°06'0 0.1
2018-Aug-16 06:33N 40°39' W 074°06'0 0.0
2018-Aug-16 06:21N 40°39' W 074°06'0 0.0
2018-Aug-16 05:45N 40°39' W 074°06'0 0.0
2018-Aug-16 05:24N 40°39' W 074°06'0 0.0
2018-Aug-16 04:57N 40°39' W 074°06'0 0.0
2018-Aug-16 04:30N 40°39' W 074°06'0 0.0
2018-Aug-16 04:00N 40°39' W 074°06'0 0.0
2018-Aug-16 03:30N 40°39' W 074°06'0 0.0
2018-Aug-16 03:00N 40°39' W 074°06'0 0.0
2018-Aug-16 02:30N 40°39' W 074°06'0 0.0
2018-Aug-16 02:00N 40°39' W 074°06'0 0.0
2018-Aug-16 01:30N 40°39' W 074°06'0 0.0
2018-Aug-16 01:00N 40°39' W 074°06'0 0.0
2018-Aug-16 00:30N 40°39' W 074°06'0 0.0
2018-Aug-16 00:00N 40°39' W 074°06'2 4.7
2018-Aug-15 23:30N 40°37' W 074°03'0 0.4
2018-Aug-15 23:00N 40°37' W 074°03'1 2.3
2018-Aug-15 22:30N 40°38' W 074°04'3 1.3
2018-Aug-15 20:15N 40°38' W 074°08'0 0.0
2018-Aug-15 19:57N 40°38' W 074°08'1 0.3
2018-Aug-15 16:54N 40°39' W 074°07'1 1.2
2018-Aug-15 16:01N 40°38' W 074°08'0 0.0
2018-Aug-15 12:21N 40°38' W 074°08'0 0.0
2018-Aug-15 12:00N 40°38' W 074°08'0 0.0
2018-Aug-15 09:54N 40°38' W 074°08'0 0.0
2018-Aug-15 09:30N 40°38' W 074°08'0 0.0
2018-Aug-15 09:00N 40°38' W 074°08'0 0.1
2018-Aug-15 08:26N 40°39' W 074°08'3 6.8
2018-Aug-15 08:00N 40°39' W 074°04'5 9.4
2018-Aug-15 07:30N 40°44' W 074°01'3 2.4
2018-Aug-15 06:25N 40°46' W 074°00'2 4.3
2018-Aug-15 06:00N 40°44' W 074°01'4 7.7
2018-Aug-15 05:30N 40°41' W 074°02'3 5.3
2018-Aug-15 04:58N 40°39' W 074°05'2 4.1
2018-Aug-15 04:30N 40°38' W 074°04'0 0.0
2018-Aug-15 04:00N 40°38' W 074°04'0 0.0
2018-Aug-15 03:30N 40°38' W 074°04'0 0.0
2018-Aug-15 02:59N 40°38' W 074°04'1 2.3
2018-Aug-15 02:30N 40°39' W 074°04'1 2.5
2018-Aug-15 02:00N 40°39' W 074°06'0 0.0
2018-Aug-15 01:30N 40°39' W 074°06'0 0.0
2018-Aug-15 01:00N 40°39' W 074°06'0 0.0
2018-Aug-15 00:26N 40°39' W 074°06'0 0.0
2018-Aug-15 00:00N 40°39' W 074°06'0 0.0
2018-Aug-14 23:30N 40°39' W 074°06'0 0.0
2018-Aug-14 23:00N 40°39' W 074°06'0 0.0
2018-Aug-14 22:30N 40°39' W 074°06'0 0.0
2018-Aug-14 21:49N 40°39' W 074°06'0 0.0
2018-Aug-14 21:30N 40°39' W 074°06'2 4.0
2018-Aug-14 21:00N 40°38' W 074°04'0 0.4
2018-Aug-14 20:28N 40°37' W 074°04'0 0.2
2018-Aug-14 20:00N 40°37' W 074°04'1 1.6
2018-Aug-14 19:30N 40°38' W 074°04'2 3.1
2018-Aug-14 19:00N 40°39' W 074°06'0 0.0
2018-Aug-14 18:30N 40°39' W 074°06'0 0.0
2018-Aug-14 17:40N 40°39' W 074°06'0 0.0
2018-Aug-14 17:24N 40°39' W 074°06'1 3.5
2018-Aug-14 17:00N 40°39' W 074°04'4 7.3
2018-Aug-14 16:30N 40°43' W 074°02'3 6.8
2018-Aug-14 16:00N 40°46' W 074°00'0 0.6
2018-Aug-14 15:30N 40°46' W 074°00'0 0.3
2018-Aug-14 15:00N 40°46' W 073°60'0 0.0
2018-Aug-14 14:30N 40°46' W 073°60'0 0.0
2018-Aug-14 14:00N 40°46' W 073°60'0 0.0
2018-Aug-14 13:30N 40°46' W 073°60'0 0.0
2018-Aug-14 12:49N 40°46' W 073°60'0 0.0
2018-Aug-14 12:17N 40°46' W 073°60'0 0.0
2018-Aug-14 11:40N 40°46' W 074°00'0 1.5
2018-Aug-14 11:30N 40°46' W 074°00'0 0.2
2018-Aug-14 09:29N 40°46' W 074°01'2 4.7
2018-Aug-14 09:00N 40°43' W 074°01'2 4.9
2018-Aug-14 08:30N 40°41' W 074°02'3 6.3
2018-Aug-14 08:00N 40°39' W 074°05'0 0.3
2018-Aug-14 07:30N 40°39' W 074°06'0 0.3
2018-Aug-14 07:00N 40°39' W 074°05'0 0.7
2018-Aug-14 06:30N 40°39' W 074°06'0 0.0
2018-Aug-14 06:00N 40°39' W 074°06'0 0.0
2018-Aug-14 05:30N 40°39' W 074°06'0 0.0
2018-Aug-14 05:00N 40°39' W 074°06'0 0.0
2018-Aug-14 04:30N 40°39' W 074°06'0 0.0
2018-Aug-14 04:00N 40°39' W 074°06'0 0.0
2018-Aug-14 03:30N 40°39' W 074°06'0 0.0
2018-Aug-14 03:00N 40°39' W 074°06'0 0.0
2018-Aug-14 02:30N 40°39' W 074°06'0 0.0
2018-Aug-14 02:00N 40°39' W 074°06'0 0.0
2018-Aug-14 01:30N 40°39' W 074°06'0 0.0
2018-Aug-14 01:00N 40°39' W 074°06'0 0.0
2018-Aug-14 00:30N 40°39' W 074°06'0 0.0
2018-Aug-14 00:00N 40°39' W 074°06'0 0.0
2018-Aug-13 23:30N 40°39' W 074°06'1 1.5
2018-Aug-13 23:00N 40°39' W 074°05'1 1.5
2018-Aug-13 22:30N 40°39' W 074°06'0 0.0
2018-Aug-13 21:57N 40°39' W 074°06'3 6.4
2018-Aug-13 21:30N 40°38' W 074°10'1 1.7
2018-Aug-13 21:00N 40°39' W 074°11'3 3.8
2018-Aug-13 20:09N 40°36' W 074°12'0 0.0
2018-Aug-13 19:42N 40°36' W 074°12'1 3.6
2018-Aug-13 19:20N 40°37' W 074°12'2 7.0
2018-Aug-13 19:00N 40°39' W 074°10'0 0.5
2018-Aug-13 18:30N 40°39' W 074°10'0 0.0
2018-Aug-13 18:00N 40°39' W 074°10'0 0.0
2018-Aug-13 17:12N 40°39' W 074°10'1 4.7
2018-Aug-13 16:59N 40°39' W 074°11'3 0.2
2018-Aug-12 22:31N 40°36' W 074°12'0 0.0
2018-Aug-12 19:34N 40°36' W 074°12'0 0.0
2018-Aug-12 19:30N 40°36' W 074°12'0 0.0
2018-Aug-12 19:00N 40°36' W 074°12'0 0.0
2018-Aug-12 18:30N 40°36' W 074°12'0 0.0
2018-Aug-12 12:07N 40°36' W 074°12'0 0.0
2018-Aug-12 11:42N 40°36' W 074°12'0 0.0
2018-Aug-12 06:40N 40°36' W 074°12'0 0.0
2018-Aug-12 06:17N 40°36' W 074°12'0 0.0
2018-Aug-12 05:09N 40°36' W 074°12'2 0.3
2018-Aug-11 22:45N 40°38' W 074°12'0 0.1
2018-Aug-11 22:27N 40°38' W 074°12'0 0.2
2018-Aug-11 21:54N 40°38' W 074°12'2 0.2
2018-Aug-11 09:25N 40°36' W 074°12'0 0.0
2018-Aug-11 08:56N 40°36' W 074°12'0 0.0
2018-Aug-11 08:30N 40°36' W 074°12'0 0.0
2018-Aug-11 07:55N 40°36' W 074°12'2 0.1
2018-Aug-10 17:39N 40°37' W 074°12'1 8.0
2018-Aug-10 17:29N 40°39' W 074°11'3 3.6
2018-Aug-10 16:45N 40°38' W 074°08'0 0.0
2018-Aug-10 16:24N 40°38' W 074°08'0 0.0
2018-Aug-10 15:42N 40°38' W 074°08'0 0.0
2018-Aug-10 15:22N 40°38' W 074°08'0 0.0
2018-Aug-10 14:58N 40°38' W 074°08'0 0.0
2018-Aug-10 14:30N 40°38' W 074°08'0 0.0
2018-Aug-10 13:58N 40°38' W 074°08'0 0.0
2018-Aug-10 13:25N 40°38' W 074°08'0 0.0
2018-Aug-10 12:48N 40°38' W 074°08'0 0.0
2018-Aug-10 12:09N 40°38' W 074°08'0 0.0
2018-Aug-10 12:00N 40°38' W 074°08'0 0.0
2018-Aug-10 11:29N 40°38' W 074°08'0 0.0
2018-Aug-10 11:00N 40°38' W 074°08'0 0.0
2018-Aug-10 10:28N 40°38' W 074°08'0 0.0
2018-Aug-10 09:55N 40°38' W 074°08'0 0.0
2018-Aug-10 08:59N 40°38' W 074°08'2 3.9
2018-Aug-10 08:30N 40°39' W 074°05'2 3.2
2018-Aug-10 08:00N 40°38' W 074°04'1 2.3
2018-Aug-10 07:30N 40°39' W 074°04'1 2.3
2018-Aug-10 07:00N 40°39' W 074°06'0 0.0
2018-Aug-10 06:30N 40°39' W 074°06'0 0.0
2018-Aug-10 05:59N 40°39' W 074°06'0 0.0
2018-Aug-10 05:30N 40°39' W 074°06'0 0.0
2018-Aug-10 05:00N 40°39' W 074°06'0 0.0
2018-Aug-10 04:28N 40°39' W 074°06'0 0.0
2018-Aug-10 03:58N 40°39' W 074°06'0 0.0
2018-Aug-10 03:28N 40°39' W 074°06'0 0.0
2018-Aug-10 02:57N 40°39' W 074°06'2 4.9
2018-Aug-10 02:30N 40°40' W 074°03'510.4
2018-Aug-10 02:00N 40°43' W 073°58'4 0.2
2018-Aug-09 05:57N 40°47' W 073°56'3 5.6
2018-Aug-09 05:30N 40°45' W 073°58'3 5.4
2018-Aug-09 05:00N 40°42' W 073°59'1 2.5
2018-Aug-09 04:30N 40°42' W 074°00'1 1.7
2018-Aug-09 04:00N 40°41' W 074°01'3 5.9
2018-Aug-09 03:30N 40°39' W 074°04'3 5.6
2018-Aug-09 03:00N 40°39' W 074°08'0 0.0
2018-Aug-09 02:30N 40°39' W 074°08'0 0.0
2018-Aug-09 01:59N 40°39' W 074°08'0 0.0
2018-Aug-09 01:26N 40°39' W 074°08'0 0.0
2018-Aug-09 00:59N 40°39' W 074°08'0 0.0
2018-Aug-09 00:30N 40°39' W 074°08'0 0.0
2018-Aug-09 00:00N 40°39' W 074°08'0 0.0
2018-Aug-08 23:30N 40°39' W 074°08'0 0.0
2018-Aug-08 23:00N 40°39' W 074°08'0 0.0
2018-Aug-08 22:30N 40°39' W 074°08'0 0.0
2018-Aug-08 21:59N 40°39' W 074°08'0 0.0
2018-Aug-08 21:30N 40°39' W 074°08'0 0.0
2018-Aug-08 21:00N 40°39' W 074°08'0 0.0
2018-Aug-08 20:29N 40°39' W 074°08'0 0.0
2018-Aug-08 20:00N 40°39' W 074°08'0 0.0
2018-Aug-08 19:30N 40°39' W 074°08'0 0.0
2018-Aug-08 19:00N 40°39' W 074°08'0 0.0
2018-Aug-08 18:30N 40°39' W 074°08'0 0.0
2018-Aug-08 18:00N 40°39' W 074°08'0 0.0
2018-Aug-08 17:11N 40°39' W 074°08'0 0.0
2018-Aug-08 16:59N 40°39' W 074°08'0 0.0
2018-Aug-08 16:30N 40°39' W 074°08'0 0.0
2018-Aug-08 15:59N 40°39' W 074°08'0 0.0
2018-Aug-08 15:30N 40°39' W 074°08'0 0.0
2018-Aug-08 15:00N 40°39' W 074°08'0 0.0
2018-Aug-08 14:30N 40°39' W 074°08'0 0.0
2018-Aug-08 14:00N 40°39' W 074°08'0 0.0
2018-Aug-08 13:30N 40°39' W 074°08'0 0.0
2018-Aug-08 13:00N 40°39' W 074°08'2 4.7
2018-Aug-08 12:29N 40°39' W 074°11'2 1.9
2018-Aug-08 11:13N 40°36' W 074°12'0 0.1
2018-Aug-08 10:45N 40°36' W 074°12'0 1.8
2018-Aug-08 10:30N 40°36' W 074°12'1 1.8
2018-Aug-08 09:46N 40°37' W 074°12'1 4.4
2018-Aug-08 09:30N 40°38' W 074°12'3 5.5
2018-Aug-08 09:00N 40°39' W 074°08'0 0.0
2018-Aug-08 08:29N 40°39' W 074°08'0 0.0
2018-Aug-08 07:59N 40°39' W 074°08'0 0.0
2018-Aug-08 07:28N 40°39' W 074°08'0 0.0
2018-Aug-08 06:54N 40°39' W 074°08'0 0.0
2018-Aug-08 06:25N 40°39' W 074°08'0 0.0
2018-Aug-08 06:00N 40°39' W 074°08'0 0.0
2018-Aug-08 05:30N 40°39' W 074°08'0 0.0
2018-Aug-08 05:00N 40°39' W 074°08'0 0.0
2018-Aug-08 04:30N 40°39' W 074°08'0 0.0
2018-Aug-08 04:00N 40°39' W 074°08'0 0.0
2018-Aug-08 03:28N 40°39' W 074°08'1 1.9
2018-Aug-08 02:55N 40°39' W 074°07'2 4.1
2018-Aug-08 02:30N 40°39' W 074°04'4 7.8
2018-Aug-08 02:00N 40°42' W 074°00'2 3.2
2018-Aug-08 01:30N 40°40' W 074°02'4 8.6
2018-Aug-08 00:59N 40°39' W 074°07'1 1.2
2018-Aug-08 00:30N 40°39' W 074°08'0 0.0
2018-Aug-07 23:59N 40°39' W 074°08'0 0.0
2018-Aug-07 23:29N 40°39' W 074°08'0 0.0
2018-Aug-07 23:00N 40°39' W 074°08'0 0.0
2018-Aug-07 22:30N 40°39' W 074°08'0 0.0
2018-Aug-07 22:00N 40°39' W 074°08'0 0.0
2018-Aug-07 21:30N 40°39' W 074°08'1 1.6
2018-Aug-07 21:00N 40°38' W 074°09'4 0.6
2018-Aug-07 14:45N 40°36' W 074°12'0 0.0
2018-Aug-07 13:35N 40°36' W 074°12'0 0.0
2018-Aug-07 13:29N 40°36' W 074°12'0 0.0
2018-Aug-07 12:45N 40°36' W 074°12'  
Track history (hours):
 
Tides and Currents Weather Stations Pressure Air Temp Water Temp Dewpoint Dewpoint Depression Visibility Wind Speed Wind Dir Waves Ship Positions

Normandy

Owner: Metropolitan Marine Transportation, Inc., Staten Island, NY. More information available from US FCC via Universal Licensing System and Coast Guard Vessel Documentation Center.

Last reported at 2018-Aug-17 10:24 UTC. Time now 2018-Aug-17 11:13 UTC.
Position N 40°46' W 074°00'.

Length 28 m.

Type: Towing. MMSI: 367686940.

Date/timePositionNaut miles runAvg speedWind from/ knotsBaromVisibWave heightAir tempDewpointWater temp
2018-Aug-17 10:24N 40°46' W 074°00'2 5.7
2018-Aug-17 10:00N 40°44' W 074°01'3 6.0
2018-Aug-17 09:30N 40°41' W 074°02'3 6.3
2018-Aug-17 09:00N 40°39' W 074°05'2 3.2
2018-Aug-17 08:25N 40°38' W 074°08'0 0.0
2018-Aug-17 08:00N 40°38' W 074°08'0 0.0
2018-Aug-17 07:30N 40°38' W 074°08'0 0.0
2018-Aug-17 07:00N 40°38' W 074°08'0 0.0
2018-Aug-17 06:30N 40°38' W 074°08'0 0.0
2018-Aug-17 06:00N 40°38' W 074°08'0 0.0
2018-Aug-17 05:30N 40°38' W 074°08'0 0.0
2018-Aug-17 04:59N 40°38' W 074°08'0 0.0
2018-Aug-17 04:30N 40°38' W 074°08'0 0.0
2018-Aug-17 03:25N 40°38' W 074°08'0 0.0
2018-Aug-17 02:57N 40°38' W 074°08'0 0.0
2018-Aug-17 00:32N 40°38' W 074°08'0 0.0
2018-Aug-16 22:47N 40°38' W 074°08'0 0.0
2018-Aug-16 22:30N 40°38' W 074°08'0 0.0
2018-Aug-16 22:00N 40°38' W 074°08'0 0.0
2018-Aug-16 21:29N 40°38' W 074°08'0 0.0
2018-Aug-16 20:03N 40°38' W 074°08'0 0.0
2018-Aug-16 19:49N 40°38' W 074°08'0 0.0
2018-Aug-16 19:18N 40°38' W 074°08'0 0.0
2018-Aug-16 18:59N 40°38' W 074°08'0 0.0
2018-Aug-16 16:11N 40°38' W 074°08'0 0.0
2018-Aug-16 15:53N 40°38' W 074°08'0 0.0
2018-Aug-16 15:08N 40°38' W 074°08'0 0.0
2018-Aug-16 14:35N 40°38' W 074°08'0 0.0
2018-Aug-16 14:29N 40°38' W 074°08'0 0.0
2018-Aug-16 14:00N 40°38' W 074°08'4 8.8
2018-Aug-16 13:30N 40°40' W 074°03'510.3
2018-Aug-16 13:00N 40°45' W 074°01'1 1.7
2018-Aug-16 12:29N 40°46' W 074°00'0 0.0
2018-Aug-16 09:56N 40°46' W 073°60'0 0.0
2018-Aug-16 09:30N 40°46' W 073°60'2 3.6
2018-Aug-16 09:00N 40°45' W 074°01'3 6.7
2018-Aug-16 08:30N 40°41' W 074°02'4 7.2
2018-Aug-16 08:00N 40°39' W 074°06'0 0.1
2018-Aug-16 06:33N 40°39' W 074°06'0 0.0
2018-Aug-16 06:21N 40°39' W 074°06'0 0.0
2018-Aug-16 05:45N 40°39' W 074°06'0 0.0
2018-Aug-16 05:24N 40°39' W 074°06'0 0.0
2018-Aug-16 04:57N 40°39' W 074°06'0 0.0
2018-Aug-16 04:30N 40°39' W 074°06'0 0.0
2018-Aug-16 04:00N 40°39' W 074°06'0 0.0
2018-Aug-16 03:30N 40°39' W 074°06'0 0.0
2018-Aug-16 03:00N 40°39' W 074°06'0 0.0
2018-Aug-16 02:30N 40°39' W 074°06'0 0.0
2018-Aug-16 02:00N 40°39' W 074°06'0 0.0
2018-Aug-16 01:30N 40°39' W 074°06'0 0.0
2018-Aug-16 01:00N 40°39' W 074°06'0 0.0
2018-Aug-16 00:30N 40°39' W 074°06'0 0.0
2018-Aug-16 00:00N 40°39' W 074°06'2 4.7
2018-Aug-15 23:30N 40°37' W 074°03'0 0.4
2018-Aug-15 23:00N 40°37' W 074°03'1 2.3
2018-Aug-15 22:30N 40°38' W 074°04'3 1.3
2018-Aug-15 20:15N 40°38' W 074°08'0 0.0
2018-Aug-15 19:57N 40°38' W 074°08'1 0.3
2018-Aug-15 16:54N 40°39' W 074°07'1 1.2
2018-Aug-15 16:01N 40°38' W 074°08'0 0.0
2018-Aug-15 12:21N 40°38' W 074°08'0 0.0
2018-Aug-15 12:00N 40°38' W 074°08'0 0.0
2018-Aug-15 09:54N 40°38' W 074°08'0 0.0
2018-Aug-15 09:30N 40°38' W 074°08'0 0.0
2018-Aug-15 09:00N 40°38' W 074°08'0 0.1
2018-Aug-15 08:26N 40°39' W 074°08'3 6.8
2018-Aug-15 08:00N 40°39' W 074°04'5 9.4
2018-Aug-15 07:30N 40°44' W 074°01'3 2.4
2018-Aug-15 06:25N 40°46' W 074°00'2 4.3
2018-Aug-15 06:00N 40°44' W 074°01'4 7.7
2018-Aug-15 05:30N 40°41' W 074°02'3 5.3
2018-Aug-15 04:58N 40°39' W 074°05'2 4.1
2018-Aug-15 04:30N 40°38' W 074°04'0 0.0
2018-Aug-15 04:00N 40°38' W 074°04'0 0.0
2018-Aug-15 03:30N 40°38' W 074°04'0 0.0
2018-Aug-15 02:59N 40°38' W 074°04'1 2.3
2018-Aug-15 02:30N 40°39' W 074°04'1 2.5
2018-Aug-15 02:00N 40°39' W 074°06'0 0.0
2018-Aug-15 01:30N 40°39' W 074°06'0 0.0
2018-Aug-15 01:00N 40°39' W 074°06'0 0.0
2018-Aug-15 00:26N 40°39' W 074°06'0 0.0
2018-Aug-15 00:00N 40°39' W 074°06'0 0.0
2018-Aug-14 23:30N 40°39' W 074°06'0 0.0
2018-Aug-14 23:00N 40°39' W 074°06'0 0.0
2018-Aug-14 22:30N 40°39' W 074°06'0 0.0
2018-Aug-14 21:49N 40°39' W 074°06'0 0.0
2018-Aug-14 21:30N 40°39' W 074°06'2 4.0
2018-Aug-14 21:00N 40°38' W 074°04'0 0.4
2018-Aug-14 20:28N 40°37' W 074°04'0 0.2
2018-Aug-14 20:00N 40°37' W 074°04'1 1.6
2018-Aug-14 19:30N 40°38' W 074°04'2 3.1
2018-Aug-14 19:00N 40°39' W 074°06'0 0.0
2018-Aug-14 18:30N 40°39' W 074°06'0 0.0
2018-Aug-14 17:40N 40°39' W 074°06'0 0.0
2018-Aug-14 17:24N 40°39' W 074°06'1 3.5
2018-Aug-14 17:00N 40°39' W 074°04'4 7.3
2018-Aug-14 16:30N 40°43' W 074°02'3 6.8
2018-Aug-14 16:00N 40°46' W 074°00'0 0.6
2018-Aug-14 15:30N 40°46' W 074°00'0 0.3
2018-Aug-14 15:00N 40°46' W 073°60'0 0.0
2018-Aug-14 14:30N 40°46' W 073°60'0 0.0
2018-Aug-14 14:00N 40°46' W 073°60'0 0.0
2018-Aug-14 13:30N 40°46' W 073°60'0 0.0
2018-Aug-14 12:49N 40°46' W 073°60'0 0.0
2018-Aug-14 12:17N 40°46' W 073°60'0 0.0
2018-Aug-14 11:40N 40°46' W 074°00'0 1.5
2018-Aug-14 11:30N 40°46' W 074°00'0 0.2
2018-Aug-14 09:29N 40°46' W 074°01'2 4.7
2018-Aug-14 09:00N 40°43' W 074°01'2 4.9
2018-Aug-14 08:30N 40°41' W 074°02'3 6.3
2018-Aug-14 08:00N 40°39' W 074°05'0 0.3
2018-Aug-14 07:30N 40°39' W 074°06'0 0.3
2018-Aug-14 07:00N 40°39' W 074°05'0 0.7
2018-Aug-14 06:30N 40°39' W 074°06'0 0.0
2018-Aug-14 06:00N 40°39' W 074°06'0 0.0
2018-Aug-14 05:30N 40°39' W 074°06'0 0.0
2018-Aug-14 05:00N 40°39' W 074°06'0 0.0
2018-Aug-14 04:30N 40°39' W 074°06'0 0.0
2018-Aug-14 04:00N 40°39' W 074°06'0 0.0
2018-Aug-14 03:30N 40°39' W 074°06'0 0.0
2018-Aug-14 03:00N 40°39' W 074°06'0 0.0
2018-Aug-14 02:30N 40°39' W 074°06'0 0.0
2018-Aug-14 02:00N 40°39' W 074°06'0 0.0
2018-Aug-14 01:30N 40°39' W 074°06'0 0.0
2018-Aug-14 01:00N 40°39' W 074°06'0 0.0
2018-Aug-14 00:30N 40°39' W 074°06'0 0.0
2018-Aug-14 00:00N 40°39' W 074°06'0 0.0
2018-Aug-13 23:30N 40°39' W 074°06'1 1.5
2018-Aug-13 23:00N 40°39' W 074°05'1 1.5
2018-Aug-13 22:30N 40°39' W 074°06'0 0.0
2018-Aug-13 21:57N 40°39' W 074°06'3 6.4
2018-Aug-13 21:30N 40°38' W 074°10'1 1.7
2018-Aug-13 21:00N 40°39' W 074°11'3 3.8
2018-Aug-13 20:09N 40°36' W 074°12'0 0.0
2018-Aug-13 19:42N 40°36' W 074°12'1 3.6
2018-Aug-13 19:20N 40°37' W 074°12'2 7.0
2018-Aug-13 19:00N 40°39' W 074°10'0 0.5
2018-Aug-13 18:30N 40°39' W 074°10'0 0.0
2018-Aug-13 18:00N 40°39' W 074°10'0 0.0
2018-Aug-13 17:12N 40°39' W 074°10'1 4.7
2018-Aug-13 16:59N 40°39' W 074°11'3 0.2
2018-Aug-12 22:31N 40°36' W 074°12'0 0.0
2018-Aug-12 19:34N 40°36' W 074°12'0 0.0
2018-Aug-12 19:30N 40°36' W 074°12'0 0.0
2018-Aug-12 19:00N 40°36' W 074°12'0 0.0
2018-Aug-12 18:30N 40°36' W 074°12'0 0.0
2018-Aug-12 12:07N 40°36' W 074°12'0 0.0
2018-Aug-12 11:42N 40°36' W 074°12'0 0.0
2018-Aug-12 06:40N 40°36' W 074°12'0 0.0
2018-Aug-12 06:17N 40°36' W 074°12'0 0.0
2018-Aug-12 05:09N 40°36' W 074°12'2 0.3
2018-Aug-11 22:45N 40°38' W 074°12'0 0.1
2018-Aug-11 22:27N 40°38' W 074°12'0 0.2
2018-Aug-11 21:54N 40°38' W 074°12'2 0.2
2018-Aug-11 09:25N 40°36' W 074°12'0 0.0
2018-Aug-11 08:56N 40°36' W 074°12'0 0.0
2018-Aug-11 08:30N 40°36' W 074°12'0 0.0
2018-Aug-11 07:55N 40°36' W 074°12'2 0.1
2018-Aug-10 17:39N 40°37' W 074°12'1 8.0
2018-Aug-10 17:29N 40°39' W 074°11'3 3.6
2018-Aug-10 16:45N 40°38' W 074°08'0 0.0
2018-Aug-10 16:24N 40°38' W 074°08'0 0.0
2018-Aug-10 15:42N 40°38' W 074°08'0 0.0
2018-Aug-10 15:22N 40°38' W 074°08'0 0.0
2018-Aug-10 14:58N 40°38' W 074°08'0 0.0
2018-Aug-10 14:30N 40°38' W 074°08'0 0.0
2018-Aug-10 13:58N 40°38' W 074°08'0 0.0
2018-Aug-10 13:25N 40°38' W 074°08'0 0.0
2018-Aug-10 12:48N 40°38' W 074°08'0 0.0
2018-Aug-10 12:09N 40°38' W 074°08'0 0.0
2018-Aug-10 12:00N 40°38' W 074°08'0 0.0
2018-Aug-10 11:29N 40°38' W 074°08'0 0.0
2018-Aug-10 11:00N 40°38' W 074°08'0 0.0
2018-Aug-10 10:28N 40°38' W 074°08'0 0.0
2018-Aug-10 09:55N 40°38' W 074°08'0 0.0
2018-Aug-10 08:59N 40°38' W 074°08'2 3.9
2018-Aug-10 08:30N 40°39' W 074°05'2 3.2
2018-Aug-10 08:00N 40°38' W 074°04'1 2.3
2018-Aug-10 07:30N 40°39' W 074°04'1 2.3
2018-Aug-10 07:00N 40°39' W 074°06'0 0.0
2018-Aug-10 06:30N 40°39' W 074°06'0 0.0
2018-Aug-10 05:59N 40°39' W 074°06'0 0.0
2018-Aug-10 05:30N 40°39' W 074°06'0 0.0
2018-Aug-10 05:00N 40°39' W 074°06'0 0.0
2018-Aug-10 04:28N 40°39' W 074°06'0 0.0
2018-Aug-10 03:58N 40°39' W 074°06'0 0.0
2018-Aug-10 03:28N 40°39' W 074°06'0 0.0
2018-Aug-10 02:57N 40°39' W 074°06'2 4.9
2018-Aug-10 02:30N 40°40' W 074°03'510.4
2018-Aug-10 02:00N 40°43' W 073°58'4 0.2
2018-Aug-09 05:57N 40°47' W 073°56'3 5.6
2018-Aug-09 05:30N 40°45' W 073°58'3 5.4
2018-Aug-09 05:00N 40°42' W 073°59'1 2.5
2018-Aug-09 04:30N 40°42' W 074°00'1 1.7
2018-Aug-09 04:00N 40°41' W 074°01'3 5.9
2018-Aug-09 03:30N 40°39' W 074°04'3 5.6
2018-Aug-09 03:00N 40°39' W 074°08'0 0.0
2018-Aug-09 02:30N 40°39' W 074°08'0 0.0
2018-Aug-09 01:59N 40°39' W 074°08'0 0.0
2018-Aug-09 01:26N 40°39' W 074°08'0 0.0
2018-Aug-09 00:59N 40°39' W 074°08'0 0.0
2018-Aug-09 00:30N 40°39' W 074°08'0 0.0
2018-Aug-09 00:00N 40°39' W 074°08'0 0.0
2018-Aug-08 23:30N 40°39' W 074°08'0 0.0
2018-Aug-08 23:00N 40°39' W 074°08'0 0.0
2018-Aug-08 22:30N 40°39' W 074°08'0 0.0
2018-Aug-08 21:59N 40°39' W 074°08'0 0.0
2018-Aug-08 21:30N 40°39' W 074°08'0 0.0
2018-Aug-08 21:00N 40°39' W 074°08'0 0.0
2018-Aug-08 20:29N 40°39' W 074°08'0 0.0
2018-Aug-08 20:00N 40°39' W 074°08'0 0.0
2018-Aug-08 19:30N 40°39' W 074°08'0 0.0
2018-Aug-08 19:00N 40°39' W 074°08'0 0.0
2018-Aug-08 18:30N 40°39' W 074°08'0 0.0
2018-Aug-08 18:00N 40°39' W 074°08'0 0.0
2018-Aug-08 17:11N 40°39' W 074°08'0 0.0
2018-Aug-08 16:59N 40°39' W 074°08'0 0.0
2018-Aug-08 16:30N 40°39' W 074°08'0 0.0
2018-Aug-08 15:59N 40°39' W 074°08'0 0.0
2018-Aug-08 15:30N 40°39' W 074°08'0 0.0
2018-Aug-08 15:00N 40°39' W 074°08'0 0.0
2018-Aug-08 14:30N 40°39' W 074°08'0 0.0
2018-Aug-08 14:00N 40°39' W 074°08'0 0.0
2018-Aug-08 13:30N 40°39' W 074°08'0 0.0
2018-Aug-08 13:00N 40°39' W 074°08'2 4.7
2018-Aug-08 12:29N 40°39' W 074°11'2 1.9
2018-Aug-08 11:13N 40°36' W 074°12'0 0.1
2018-Aug-08 10:45N 40°36' W 074°12'0 1.8
2018-Aug-08 10:30N 40°36' W 074°12'1 1.8
2018-Aug-08 09:46N 40°37' W 074°12'1 4.4
2018-Aug-08 09:30N 40°38' W 074°12'3 5.5
2018-Aug-08 09:00N 40°39' W 074°08'0 0.0
2018-Aug-08 08:29N 40°39' W 074°08'0 0.0
2018-Aug-08 07:59N 40°39' W 074°08'0 0.0
2018-Aug-08 07:28N 40°39' W 074°08'0 0.0
2018-Aug-08 06:54N 40°39' W 074°08'0 0.0
2018-Aug-08 06:25N 40°39' W 074°08'0 0.0
2018-Aug-08 06:00N 40°39' W 074°08'0 0.0
2018-Aug-08 05:30N 40°39' W 074°08'0 0.0
2018-Aug-08 05:00N 40°39' W 074°08'0 0.0
2018-Aug-08 04:30N 40°39' W 074°08'0 0.0
2018-Aug-08 04:00N 40°39' W 074°08'0 0.0
2018-Aug-08 03:28N 40°39' W 074°08'1 1.9
2018-Aug-08 02:55N 40°39' W 074°07'2 4.1
2018-Aug-08 02:30N 40°39' W 074°04'4 7.8
2018-Aug-08 02:00N 40°42' W 074°00'2 3.2
2018-Aug-08 01:30N 40°40' W 074°02'4 8.6
2018-Aug-08 00:59N 40°39' W 074°07'1 1.2
2018-Aug-08 00:30N 40°39' W 074°08'0 0.0
2018-Aug-07 23:59N 40°39' W 074°08'0 0.0
2018-Aug-07 23:29N 40°39' W 074°08'0 0.0
2018-Aug-07 23:00N 40°39' W 074°08'0 0.0
2018-Aug-07 22:30N 40°39' W 074°08'0 0.0
2018-Aug-07 22:00N 40°39' W 074°08'0 0.0
2018-Aug-07 21:30N 40°39' W 074°08'1 1.6
2018-Aug-07 21:00N 40°38' W 074°09'4 0.6
2018-Aug-07 14:45N 40°36' W 074°12'0 0.0
2018-Aug-07 13:35N 40°36' W 074°12'0 0.0
2018-Aug-07 13:29N 40°36' W 074°12'0 0.0
2018-Aug-07 12:45N 40°36' W 074°12'  

Dump ship's entire track history